Current Weather

Jamshedpur

Jamshedpur, India (VEJS)

Report from: Monday, May 23, 2022 12:30 PM IST
Current time: Monday, May 23, 2022 1:21 PM IST

Nearby weather
Weather history
Weather forecast

Present weatherHaze
Temperature34.0°C (93.2°F)
Heat index37.4°C (99.2°F)
Dew point21.0°C (69.8°F)
Winds 4 kts (2.1 m/s, 4.6 mph) Southeast (140°)
Visibility3.1 mi. (5 km)
Altimeter29.53 in.Hg (1000 mB)
Relative humidity47 %
Density altitude2,941 ft. (896 m)
Flight conditions Marginal Visual Meteorological Conditions
Raw dataVEJS 230700Z 14004KT 5000 HZ NSC 34/21 Q1000
An error has occurred. This application may no longer respond until reloaded. Reload 🗙